Lynn Haven, FL (32444)

4:14 PM CDT on July 30, 2015 (GMT -0500)
Downtown Lynn Haven | | Change Station
CLOSE
Current Station
Personal Weather Station
Location: Lynn Haven, FL
Elevation: 26 ft
Nearby Weather Stations

Elev 26 ft 30.24 °N, 85.65 °W | Updated 29 seconds ago

Thunderstorm
Thunderstorm
76.9 °F
Feels Like 78 °F
N
11.5
Wind Variable Wind from SSW
Gusts 11.5 mph

Today
High -- | Low -- °F
--% Chance of Precip.
Yesterday
High -- | Low -- °F
Precip. -- in
5:59 AM 7:37 PM
Full, 100% visible
Pressure 29.94 in
Visibility 9.0 miles
Clouds Scattered Clouds 900 ft
Scattered Clouds 1500 ft
Mostly Cloudy 4200 ft
Heat Index 78 °F
Dew Point 75 °F
Humidity 94%
Rainfall 0.58 in
Snow Depth Not available.
UV 0.0 out of 12
Pollen .50 out of 12
Air Quality Not available.
Flu Activity Not available.
SPECI KPAM 302103Z AUTO 17012KT 9SM -RA VCTS SCT009 SCT015 BKN042 26/24 A2994 RMK AO2 LTG DSNT NW-N AND S-SW CIG 022 RWY14 $

More Conditions Fewer Conditions

Pressure 29.94 in
Visibility 9.0 miles
Clouds Scattered Clouds 900 ft
Scattered Clouds 1500 ft
Mostly Cloudy 4200 ft
Heat Index 78 °F
Dew Point 75 °F
Humidity 94%
Rainfall 0.58 in
Snow Depth Not available.
UV 0.0 out of 12
Pollen .50 out of 12
Air Quality Not available.
Flu Activity Not available.
SPECI KPAM 302103Z AUTO 17012KT 9SM -RA VCTS SCT009 SCT015 BKN042 26/24 A2994 RMK AO2 LTG DSNT NW-N AND S-SW CIG 022 RWY14 $

More Conditions Fewer Conditions

10-Day Weather Forecast

×

Almanac

Astronomy

Jul. 30, 2015 Rise Set
Actual Time
Civil Twilight
Nautical Twilight
Astronomical Twilight
Moon
Length of Visible Light
Length of Day
Tomorrow will be .
, % of the Moon is Illuminated

Today's Extremes

State Highs State Lows

Community

WunderPhotos

Upload Photos

1,842,502 photos uploaded!

WunderBlogs® & News

Nearby

Air Quality

  Air Quality AQ Index Pollutant
Not available.

Snow Depth

Station Depth Elevation

Earthquake Activity

City Distance Mag. Time & Date
Minimum magnitude displayed is 2.5.

Coastal Water Temperatures

Place Temperature

Stations

Nearby Weather Stations

Station Location Temp. Windchill Dew Point Humidity Wind Precip. Elev Updated Type